Terminal Aerodrome Forecast
Issued by NWS

Home | Current Version | Previous Version | Text Only | Print | Product List | Glossary On
Versions: 1 2 3 4 5 6 7 8 9 10 11 12 13 14
924
FTUS45 KPIH 261359 AAA
TAFSUN
TAF AMD
KSUN 261359Z 2614/2712 VRB06KT P6SM -RA BKN015 BKN025
      TEMPO 2614/2616 3SM RASN BR BKN005 OVC010
     FM261700 19009KT P6SM -SHRA VCTS SCT030 BKN050CB
     FM270400 34010KT P6SM SCT050 BKN070=

USA.gov is the U.S. government's official web portal to all federal, state and local government web resources and services.